EZS49KR LSGG-LFKB
Flight info
| Callsign | EZS49KR |
|---|---|
| Flight time | 1h 7m |
| Altitude | 27000 |
| Route | MEDAM DCT VEVAR DCT BARSO DCT KOLON DCT NARTI UP991 NIRDO |
| Aircraft | A20N/M-SDE2E3FGHIJ1RWXYZ/LB1 |
Departure
| Time | 2026-04-25 17:42 |
|---|---|
| Airport | Geneva International Airport (LSGG) |
Arrival
| Time | 2026-04-25 18:49 |
|---|---|
| Airport | Bastia-Poretta International airport (LFKB) |
| Time | Latitude | Longitude | Altitude | Speed | Heading |
|---|---|---|---|---|---|
| 2026-04-25 17:15 | 46.23031 | 6.10569 | 1393 ft | 0 kts | 134° |
| 2026-04-25 17:31 | 46.23035 | 6.10563 | 1393 ft | 2 kts | 141° |
| 2026-04-25 17:32 | 46.23048 | 6.10550 | 1393 ft | 2 kts | 153° |
| 2026-04-25 17:32 | 46.23062 | 6.10543 | 1392 ft | 2 kts | 172° |
| 2026-04-25 17:32 | 46.23077 | 6.10543 | 1392 ft | 2 kts | 189° |
| 2026-04-25 17:32 | 46.23092 | 6.10549 | 1392 ft | 2 kts | 207° |
| 2026-04-25 17:33 | 46.23102 | 6.10559 | 1392 ft | 0 kts | 222° |
| 2026-04-25 17:33 | 46.23107 | 6.10566 | 1392 ft | 1 kts | 225° |
| 2026-04-25 17:33 | 46.23107 | 6.10567 | 1392 ft | 0 kts | 225° |
| 2026-04-25 17:35 | 46.23095 | 6.10549 | 1392 ft | 4 kts | 223° |
| 2026-04-25 17:36 | 46.23063 | 6.10506 | 1392 ft | 7 kts | 223° |
| 2026-04-25 17:36 | 46.23023 | 6.10450 | 1392 ft | 8 kts | 226° |
| 2026-04-25 17:36 | 46.22979 | 6.10386 | 1393 ft | 8 kts | 224° |
| 2026-04-25 17:36 | 46.22950 | 6.10317 | 1394 ft | 8 kts | 280° |
| 2026-04-25 17:37 | 46.22990 | 6.10243 | 1393 ft | 10 kts | 316° |
| 2026-04-25 17:37 | 46.23042 | 6.10159 | 1392 ft | 11 kts | 291° |
| 2026-04-25 17:37 | 46.23009 | 6.10060 | 1392 ft | 11 kts | 226° |
| 2026-04-25 17:37 | 46.22951 | 6.09975 | 1393 ft | 11 kts | 226° |
| 2026-04-25 17:38 | 46.22913 | 6.09919 | 1394 ft | 11 kts | 226° |
| 2026-04-25 17:38 | 46.22877 | 6.09865 | 1395 ft | 10 kts | 226° |
| 2026-04-25 17:38 | 46.22792 | 6.09741 | 1397 ft | 9 kts | 225° |
| 2026-04-25 17:38 | 46.22742 | 6.09667 | 1397 ft | 11 kts | 225° |
| 2026-04-25 17:39 | 46.22685 | 6.09584 | 1398 ft | 11 kts | 226° |
| 2026-04-25 17:39 | 46.22630 | 6.09502 | 1399 ft | 11 kts | 226° |
| 2026-04-25 17:39 | 46.22582 | 6.09427 | 1402 ft | 9 kts | 231° |
| 2026-04-25 17:39 | 46.22554 | 6.09350 | 1403 ft | 8 kts | 253° |
| 2026-04-25 17:40 | 46.22547 | 6.09270 | 1404 ft | 7 kts | 271° |
| 2026-04-25 17:40 | 46.22552 | 6.09214 | 1407 ft | 4 kts | 285° |
| 2026-04-25 17:40 | 46.22568 | 6.09169 | 1408 ft | 5 kts | 307° |
| 2026-04-25 17:40 | 46.22608 | 6.09141 | 1409 ft | 8 kts | 26° |
| 2026-04-25 17:41 | 46.22689 | 6.09255 | 1407 ft | 37 kts | 45° |
| 2026-04-25 17:41 | 46.23042 | 6.09769 | 1397 ft | 105 kts | 46° |
| 2026-04-25 17:41 | 46.23703 | 6.10745 | 1380 ft | 161 kts | 44° |
| 2026-04-25 17:41 | 46.24564 | 6.12016 | 1647 ft | 182 kts | 47° |
| 2026-04-25 17:42 | 46.25393 | 6.13285 | 2363 ft | 174 kts | 45° |
| 2026-04-25 17:42 | 46.26219 | 6.14519 | 3060 ft | 172 kts | 44° |
| 2026-04-25 17:42 | 46.27069 | 6.15763 | 3550 ft | 180 kts | 44° |
| 2026-04-25 17:42 | 46.27993 | 6.17108 | 3904 ft | 197 kts | 44° |
| 2026-04-25 17:43 | 46.29008 | 6.18590 | 4224 ft | 219 kts | 44° |
| 2026-04-25 17:43 | 46.30121 | 6.20219 | 4668 ft | 237 kts | 44° |
| 2026-04-25 17:43 | 46.31143 | 6.22194 | 5080 ft | 257 kts | 69° |
| 2026-04-25 17:43 | 46.31267 | 6.24816 | 5622 ft | 273 kts | 104° |
| 2026-04-25 17:44 | 46.30309 | 6.27117 | 6391 ft | 278 kts | 138° |
| 2026-04-25 17:44 | 46.28588 | 6.28321 | 7196 ft | 282 kts | 171° |
| 2026-04-25 17:44 | 46.26631 | 6.28340 | 7990 ft | 285 kts | 182° |
| 2026-04-25 17:44 | 46.24651 | 6.28184 | 8739 ft | 290 kts | 182° |
| 2026-04-25 17:45 | 46.22636 | 6.28085 | 9513 ft | 293 kts | 180° |
| 2026-04-25 17:45 | 46.21962 | 6.28068 | 9769 ft | 294 kts | 180° |
| 2026-04-25 17:45 | 46.18494 | 6.28068 | 10846 ft | 309 kts | 179° |
| 2026-04-25 17:45 | 46.16309 | 6.28115 | 11212 ft | 326 kts | 178° |
| 2026-04-25 17:46 | 46.13966 | 6.28181 | 11603 ft | 342 kts | 178° |
| 2026-04-25 17:46 | 46.11570 | 6.28258 | 12244 ft | 349 kts | 178° |
| 2026-04-25 17:46 | 46.09155 | 6.28339 | 12935 ft | 353 kts | 178° |
| 2026-04-25 17:46 | 46.06704 | 6.28423 | 13604 ft | 357 kts | 178° |
| 2026-04-25 17:47 | 46.04216 | 6.28510 | 14261 ft | 362 kts | 178° |
| 2026-04-25 17:47 | 46.01665 | 6.28601 | 14941 ft | 366 kts | 178° |
| 2026-04-25 17:47 | 45.99116 | 6.28690 | 15584 ft | 370 kts | 178° |
| 2026-04-25 17:47 | 45.96541 | 6.28779 | 16207 ft | 374 kts | 178° |
| 2026-04-25 17:48 | 45.91298 | 6.29006 | 17405 ft | 382 kts | 174° |
| 2026-04-25 17:48 | 45.88737 | 6.29852 | 17965 ft | 386 kts | 158° |
| 2026-04-25 17:48 | 45.86359 | 6.31659 | 18570 ft | 388 kts | 143° |
| 2026-04-25 17:49 | 45.84191 | 6.33953 | 19180 ft | 391 kts | 141° |
| 2026-04-25 17:49 | 45.82023 | 6.36343 | 19762 ft | 394 kts | 141° |
| 2026-04-25 17:49 | 45.79837 | 6.38728 | 20350 ft | 397 kts | 141° |
| 2026-04-25 17:49 | 45.77609 | 6.41115 | 20926 ft | 401 kts | 142° |
| 2026-04-25 17:50 | 45.75371 | 6.43492 | 21482 ft | 404 kts | 142° |
| 2026-04-25 17:50 | 45.73106 | 6.45890 | 22034 ft | 407 kts | 142° |
| 2026-04-25 17:50 | 45.70826 | 6.48300 | 22574 ft | 410 kts | 142° |
| 2026-04-25 17:50 | 45.68538 | 6.50714 | 23096 ft | 413 kts | 142° |
| 2026-04-25 17:51 | 45.66223 | 6.53155 | 23687 ft | 413 kts | 142° |
| 2026-04-25 17:51 | 45.63905 | 6.55598 | 24391 ft | 411 kts | 142° |
| 2026-04-25 17:51 | 45.61621 | 6.58004 | 25073 ft | 408 kts | 142° |
| 2026-04-25 17:51 | 45.59315 | 6.60432 | 25693 ft | 407 kts | 142° |
| 2026-04-25 17:52 | 45.57000 | 6.62866 | 26228 ft | 408 kts | 142° |
| 2026-04-25 17:52 | 45.55477 | 6.64465 | 26536 ft | 409 kts | 142° |
| 2026-04-25 17:52 | 45.52384 | 6.67712 | 27097 ft | 412 kts | 143° |
| 2026-04-25 17:52 | 45.50046 | 6.70161 | 27187 ft | 414 kts | 143° |
| 2026-04-25 17:53 | 45.47704 | 6.72611 | 27190 ft | 414 kts | 143° |
| 2026-04-25 17:53 | 45.45373 | 6.75043 | 27194 ft | 415 kts | 144° |
| 2026-04-25 17:53 | 45.42994 | 6.77457 | 27196 ft | 415 kts | 144° |
| 2026-04-25 17:53 | 45.40620 | 6.79831 | 27194 ft | 414 kts | 145° |
| 2026-04-25 17:54 | 45.38224 | 6.82223 | 27194 ft | 415 kts | 144° |
| 2026-04-25 17:54 | 45.35830 | 6.84617 | 27196 ft | 415 kts | 144° |
| 2026-04-25 17:54 | 45.33473 | 6.86975 | 27197 ft | 415 kts | 144° |
| 2026-04-25 17:54 | 45.31087 | 6.89361 | 27193 ft | 414 kts | 144° |
| 2026-04-25 17:55 | 45.28712 | 6.91691 | 27191 ft | 414 kts | 148° |
| 2026-04-25 17:55 | 45.26075 | 6.93527 | 27192 ft | 414 kts | 161° |
| 2026-04-25 17:55 | 45.23296 | 6.94565 | 27195 ft | 413 kts | 172° |
| 2026-04-25 17:55 | 45.20404 | 6.95074 | 27199 ft | 413 kts | 175° |
| 2026-04-25 17:56 | 45.17512 | 6.95494 | 27196 ft | 413 kts | 175° |
| 2026-04-25 17:56 | 45.14661 | 6.95903 | 27193 ft | 413 kts | 175° |
| 2026-04-25 17:56 | 45.11776 | 6.96331 | 27195 ft | 413 kts | 174° |
| 2026-04-25 17:56 | 45.08875 | 6.96773 | 27198 ft | 413 kts | 174° |
| 2026-04-25 17:57 | 45.06050 | 6.97210 | 27196 ft | 413 kts | 174° |
| 2026-04-25 17:57 | 45.03166 | 6.97658 | 27196 ft | 412 kts | 174° |
| 2026-04-25 17:57 | 45.00284 | 6.98107 | 27194 ft | 412 kts | 174° |
| 2026-04-25 17:57 | 44.99323 | 6.98256 | 27194 ft | 412 kts | 174° |
| 2026-04-25 17:58 | 44.94528 | 6.99004 | 27197 ft | 411 kts | 174° |
| 2026-04-25 17:58 | 44.91682 | 6.99447 | 27196 ft | 411 kts | 174° |
| 2026-04-25 17:58 | 44.88820 | 6.99892 | 27197 ft | 411 kts | 174° |
| 2026-04-25 17:58 | 44.85929 | 7.00342 | 27193 ft | 412 kts | 174° |
| 2026-04-25 17:59 | 44.83073 | 7.00771 | 27189 ft | 412 kts | 176° |
| 2026-04-25 17:59 | 44.80196 | 7.00946 | 27190 ft | 412 kts | 181° |
| 2026-04-25 17:59 | 44.77320 | 7.00755 | 27191 ft | 411 kts | 187° |
| 2026-04-25 17:59 | 44.74445 | 7.00263 | 27189 ft | 410 kts | 189° |
| 2026-04-25 18:00 | 44.71613 | 6.99724 | 27188 ft | 411 kts | 189° |
| 2026-04-25 18:00 | 44.68723 | 6.99168 | 27187 ft | 410 kts | 189° |
| 2026-04-25 18:00 | 44.65906 | 6.98631 | 27188 ft | 410 kts | 189° |
| 2026-04-25 18:00 | 44.63076 | 6.98095 | 27188 ft | 410 kts | 189° |
| 2026-04-25 18:01 | 44.60251 | 6.97563 | 27188 ft | 410 kts | 189° |
| 2026-04-25 18:01 | 44.57397 | 6.97030 | 27186 ft | 410 kts | 189° |
| 2026-04-25 18:01 | 44.54601 | 6.96506 | 27186 ft | 409 kts | 189° |
| 2026-04-25 18:01 | 44.51749 | 6.95974 | 27183 ft | 410 kts | 189° |
| 2026-04-25 18:02 | 44.48950 | 6.95451 | 27185 ft | 410 kts | 189° |
| 2026-04-25 18:02 | 44.46118 | 6.94925 | 27185 ft | 410 kts | 189° |
| 2026-04-25 18:02 | 44.43288 | 6.94399 | 27189 ft | 410 kts | 189° |
| 2026-04-25 18:02 | 44.40474 | 6.93877 | 27187 ft | 410 kts | 189° |
| 2026-04-25 18:03 | 44.37648 | 6.93353 | 27189 ft | 409 kts | 189° |
| 2026-04-25 18:03 | 44.34848 | 6.92835 | 27191 ft | 409 kts | 189° |
| 2026-04-25 18:03 | 44.32009 | 6.92309 | 27188 ft | 409 kts | 189° |
| 2026-04-25 18:03 | 44.29191 | 6.91788 | 27189 ft | 409 kts | 189° |
| 2026-04-25 18:04 | 44.26403 | 6.91273 | 27190 ft | 409 kts | 189° |
| 2026-04-25 18:04 | 44.23588 | 6.90752 | 27191 ft | 408 kts | 189° |
| 2026-04-25 18:04 | 44.20749 | 6.90229 | 27188 ft | 409 kts | 189° |
| 2026-04-25 18:04 | 44.17960 | 6.89717 | 27180 ft | 408 kts | 188° |
| 2026-04-25 18:05 | 44.15131 | 6.89386 | 27171 ft | 410 kts | 184° |
| 2026-04-25 18:05 | 44.12246 | 6.89403 | 27160 ft | 411 kts | 178° |
| 2026-04-25 18:05 | 44.09402 | 6.89744 | 27148 ft | 411 kts | 175° |
| 2026-04-25 18:05 | 44.06559 | 6.90176 | 27135 ft | 411 kts | 175° |
| 2026-04-25 18:06 | 44.03749 | 6.90614 | 27123 ft | 411 kts | 175° |
| 2026-04-25 18:06 | 44.00895 | 6.91053 | 27114 ft | 411 kts | 175° |
| 2026-04-25 18:06 | 43.98060 | 6.91485 | 27103 ft | 411 kts | 175° |
| 2026-04-25 18:06 | 43.95196 | 6.91917 | 27097 ft | 412 kts | 175° |
| 2026-04-25 18:07 | 43.92360 | 6.92341 | 27097 ft | 412 kts | 175° |
| 2026-04-25 18:07 | 43.89502 | 6.92769 | 27096 ft | 412 kts | 175° |
| 2026-04-25 18:07 | 43.86644 | 6.93195 | 27100 ft | 413 kts | 175° |
| 2026-04-25 18:07 | 43.83797 | 6.93619 | 27099 ft | 413 kts | 175° |
| 2026-04-25 18:08 | 43.80942 | 6.94044 | 27098 ft | 412 kts | 175° |
| 2026-04-25 18:08 | 43.78109 | 6.94464 | 27093 ft | 412 kts | 175° |
| 2026-04-25 18:08 | 43.75276 | 6.94916 | 27090 ft | 412 kts | 171° |
| 2026-04-25 18:08 | 43.72528 | 6.96123 | 27080 ft | 413 kts | 152° |
| 2026-04-25 18:09 | 43.70202 | 6.98385 | 27082 ft | 413 kts | 135° |
| 2026-04-25 18:09 | 43.68277 | 7.01350 | 27090 ft | 412 kts | 129° |
| 2026-04-25 18:09 | 43.66457 | 7.04372 | 27082 ft | 412 kts | 129° |
| 2026-04-25 18:09 | 43.65842 | 7.05393 | 27079 ft | 412 kts | 129° |
| 2026-04-25 18:10 | 43.62764 | 7.10439 | 27077 ft | 412 kts | 129° |
| 2026-04-25 18:10 | 43.60915 | 7.13418 | 27074 ft | 412 kts | 129° |
| 2026-04-25 18:10 | 43.59654 | 7.15438 | 27075 ft | 412 kts | 130° |
| 2026-04-25 18:10 | 43.57148 | 7.19445 | 27071 ft | 412 kts | 129° |
| 2026-04-25 18:11 | 43.55405 | 7.22619 | 27072 ft | 412 kts | 122° |
| 2026-04-25 18:11 | 43.53914 | 7.26051 | 27073 ft | 411 kts | 116° |
| 2026-04-25 18:11 | 43.52653 | 7.29685 | 27074 ft | 410 kts | 113° |
| 2026-04-25 18:11 | 43.51427 | 7.33443 | 27072 ft | 410 kts | 112° |
| 2026-04-25 18:12 | 43.50221 | 7.37162 | 27070 ft | 409 kts | 112° |
| 2026-04-25 18:12 | 43.49010 | 7.40878 | 27071 ft | 409 kts | 112° |
| 2026-04-25 18:12 | 43.47802 | 7.44564 | 27071 ft | 409 kts | 112° |
| 2026-04-25 18:12 | 43.46579 | 7.48280 | 27072 ft | 409 kts | 112° |
| 2026-04-25 18:13 | 43.45361 | 7.51969 | 27070 ft | 409 kts | 112° |
| 2026-04-25 18:13 | 43.44119 | 7.55718 | 27072 ft | 409 kts | 112° |
| 2026-04-25 18:13 | 43.42926 | 7.59317 | 27073 ft | 409 kts | 112° |
| 2026-04-25 18:14 | 43.40535 | 7.66512 | 27075 ft | 409 kts | 113° |
| 2026-04-25 18:14 | 43.39329 | 7.70131 | 27074 ft | 409 kts | 113° |
| 2026-04-25 18:14 | 43.38135 | 7.73712 | 27074 ft | 409 kts | 113° |
| 2026-04-25 18:14 | 43.36929 | 7.77326 | 27074 ft | 409 kts | 113° |
| 2026-04-25 18:15 | 43.35722 | 7.80935 | 27075 ft | 408 kts | 113° |
| 2026-04-25 18:15 | 43.34537 | 7.84473 | 27074 ft | 408 kts | 113° |
| 2026-04-25 18:15 | 43.33299 | 7.88165 | 27075 ft | 408 kts | 113° |
| 2026-04-25 18:15 | 43.32111 | 7.91702 | 27076 ft | 408 kts | 113° |
| 2026-04-25 18:16 | 43.30931 | 7.95209 | 27075 ft | 408 kts | 113° |
| 2026-04-25 18:16 | 43.29740 | 7.98749 | 27076 ft | 408 kts | 113° |
| 2026-04-25 18:16 | 43.27348 | 8.05842 | 27077 ft | 408 kts | 113° |
| 2026-04-25 18:17 | 43.26152 | 8.09382 | 26997 ft | 404 kts | 113° |
| 2026-04-25 18:17 | 43.24972 | 8.12867 | 26543 ft | 403 kts | 113° |
| 2026-04-25 18:17 | 43.23802 | 8.16319 | 25964 ft | 402 kts | 113° |
| 2026-04-25 18:17 | 43.22628 | 8.19781 | 25472 ft | 400 kts | 113° |
| 2026-04-25 18:18 | 43.21470 | 8.23193 | 24914 ft | 399 kts | 113° |
| 2026-04-25 18:18 | 43.20285 | 8.26678 | 24281 ft | 400 kts | 113° |
| 2026-04-25 18:18 | 43.19112 | 8.30125 | 23628 ft | 402 kts | 113° |
| 2026-04-25 18:18 | 43.17918 | 8.33626 | 22962 ft | 404 kts | 113° |
| 2026-04-25 18:19 | 43.16716 | 8.37150 | 22367 ft | 404 kts | 114° |
| 2026-04-25 18:19 | 43.15553 | 8.40615 | 21908 ft | 400 kts | 111° |
| 2026-04-25 18:19 | 43.14598 | 8.44174 | 21430 ft | 396 kts | 105° |
| 2026-04-25 18:19 | 43.13916 | 8.47832 | 20937 ft | 393 kts | 100° |
| 2026-04-25 18:20 | 43.13396 | 8.51472 | 20454 ft | 390 kts | 99° |
| 2026-04-25 18:20 | 43.12910 | 8.55056 | 19977 ft | 388 kts | 99° |
| 2026-04-25 18:20 | 43.12418 | 8.58675 | 19498 ft | 385 kts | 99° |
| 2026-04-25 18:20 | 43.11924 | 8.62269 | 19026 ft | 382 kts | 99° |
| 2026-04-25 18:21 | 43.11431 | 8.65823 | 18552 ft | 380 kts | 100° |
| 2026-04-25 18:21 | 43.10942 | 8.69322 | 18074 ft | 377 kts | 101° |
| 2026-04-25 18:21 | 43.10448 | 8.72834 | 17600 ft | 375 kts | 101° |
| 2026-04-25 18:21 | 43.09959 | 8.76302 | 17150 ft | 372 kts | 101° |
| 2026-04-25 18:22 | 43.09476 | 8.79718 | 16714 ft | 369 kts | 101° |
| 2026-04-25 18:22 | 43.09302 | 8.80946 | 16553 ft | 368 kts | 101° |
| 2026-04-25 18:22 | 43.08482 | 8.86722 | 15788 ft | 364 kts | 101° |
| 2026-04-25 18:22 | 43.08160 | 8.88986 | 15487 ft | 362 kts | 101° |
| 2026-04-25 18:23 | 43.07515 | 8.93512 | 14898 ft | 358 kts | 101° |
| 2026-04-25 18:23 | 43.07036 | 8.96858 | 14452 ft | 355 kts | 101° |
| 2026-04-25 18:23 | 43.06566 | 9.00134 | 14010 ft | 352 kts | 101° |
| 2026-04-25 18:23 | 43.06097 | 9.03400 | 13571 ft | 349 kts | 101° |
| 2026-04-25 18:24 | 43.05626 | 9.06628 | 13129 ft | 347 kts | 102° |
| 2026-04-25 18:24 | 43.05027 | 9.09813 | 12691 ft | 344 kts | 107° |
| 2026-04-25 18:24 | 43.04304 | 9.12901 | 12252 ft | 342 kts | 108° |
| 2026-04-25 18:24 | 43.03566 | 9.15962 | 11810 ft | 339 kts | 108° |
| 2026-04-25 18:25 | 43.02831 | 9.18996 | 11456 ft | 334 kts | 108° |
| 2026-04-25 18:25 | 43.02115 | 9.21954 | 11269 ft | 323 kts | 108° |
| 2026-04-25 18:25 | 43.01472 | 9.24615 | 11093 ft | 314 kts | 108° |
| 2026-04-25 18:25 | 43.00799 | 9.27402 | 10908 ft | 304 kts | 108° |
| 2026-04-25 18:26 | 43.00145 | 9.30109 | 10692 ft | 297 kts | 108° |
| 2026-04-25 18:26 | 42.99499 | 9.32779 | 10340 ft | 295 kts | 107° |
| 2026-04-25 18:26 | 42.98862 | 9.35409 | 9965 ft | 294 kts | 107° |
| 2026-04-25 18:26 | 42.98222 | 9.38050 | 9592 ft | 292 kts | 107° |
| 2026-04-25 18:27 | 42.97585 | 9.40681 | 9220 ft | 291 kts | 107° |
| 2026-04-25 18:27 | 42.96948 | 9.43308 | 8838 ft | 290 kts | 108° |
| 2026-04-25 18:27 | 42.96321 | 9.45889 | 8467 ft | 289 kts | 108° |
| 2026-04-25 18:27 | 42.95897 | 9.47631 | 8215 ft | 288 kts | 108° |
| 2026-04-25 18:28 | 42.95062 | 9.51051 | 7723 ft | 287 kts | 108° |
| 2026-04-25 18:28 | 42.94429 | 9.53647 | 7348 ft | 286 kts | 108° |
| 2026-04-25 18:28 | 42.93813 | 9.56170 | 7165 ft | 277 kts | 108° |
| 2026-04-25 18:29 | 42.91649 | 9.59985 | 6785 ft | 254 kts | 165° |
| 2026-04-25 18:29 | 42.89943 | 9.60035 | 6586 ft | 241 kts | 197° |
| 2026-04-25 18:30 | 42.85274 | 9.57764 | 6097 ft | 238 kts | 202° |
| 2026-04-25 18:30 | 42.83754 | 9.56888 | 6094 ft | 238 kts | 207° |
| 2026-04-25 18:30 | 42.82289 | 9.55887 | 6094 ft | 238 kts | 208° |
| 2026-04-25 18:30 | 42.80798 | 9.54858 | 6005 ft | 234 kts | 208° |
| 2026-04-25 18:31 | 42.79334 | 9.53856 | 5580 ft | 234 kts | 208° |
| 2026-04-25 18:31 | 42.77886 | 9.52874 | 5141 ft | 234 kts | 207° |
| 2026-04-25 18:31 | 42.76425 | 9.51889 | 4633 ft | 237 kts | 207° |
| 2026-04-25 18:31 | 42.74927 | 9.50881 | 4059 ft | 241 kts | 207° |
| 2026-04-25 18:32 | 42.73420 | 9.49870 | 3490 ft | 245 kts | 207° |
| 2026-04-25 18:32 | 42.71905 | 9.48854 | 2927 ft | 247 kts | 207° |
| 2026-04-25 18:32 | 42.70372 | 9.47828 | 2552 ft | 240 kts | 207° |
| 2026-04-25 18:32 | 42.68912 | 9.46855 | 2484 ft | 225 kts | 206° |
| 2026-04-25 18:33 | 42.67432 | 9.46331 | 2479 ft | 219 kts | 182° |
| 2026-04-25 18:33 | 42.65885 | 9.46446 | 2313 ft | 224 kts | 175° |
| 2026-04-25 18:33 | 42.64322 | 9.46585 | 1905 ft | 229 kts | 181° |
| 2026-04-25 18:33 | 42.62764 | 9.46600 | 1665 ft | 217 kts | 179° |
| 2026-04-25 18:34 | 42.61269 | 9.46743 | 1404 ft | 225 kts | 174° |
| 2026-04-25 18:34 | 42.59585 | 9.47084 | 1539 ft | 254 kts | 170° |
| 2026-04-25 18:34 | 42.57929 | 9.47596 | 1672 ft | 234 kts | 165° |
| 2026-04-25 18:34 | 42.56419 | 9.48248 | 1693 ft | 221 kts | 160° |
| 2026-04-25 18:35 | 42.54987 | 9.49063 | 1698 ft | 228 kts | 155° |
| 2026-04-25 18:35 | 42.53508 | 9.50116 | 1845 ft | 258 kts | 150° |
| 2026-04-25 18:35 | 42.51901 | 9.51464 | 2203 ft | 283 kts | 149° |
| 2026-04-25 18:35 | 42.50112 | 9.52406 | 3183 ft | 266 kts | 172° |
| 2026-04-25 18:36 | 42.48463 | 9.52741 | 4002 ft | 228 kts | 163° |
| 2026-04-25 18:36 | 42.47123 | 9.53814 | 4600 ft | 230 kts | 132° |
| 2026-04-25 18:36 | 42.46367 | 9.55707 | 4934 ft | 232 kts | 100° |
| 2026-04-25 18:36 | 42.46442 | 9.57860 | 4987 ft | 231 kts | 68° |
| 2026-04-25 18:37 | 42.47304 | 9.59638 | 4999 ft | 229 kts | 45° |
| 2026-04-25 18:37 | 42.48525 | 9.60988 | 4982 ft | 227 kts | 22° |
| 2026-04-25 18:37 | 42.50027 | 9.61648 | 4993 ft | 227 kts | 11° |
| 2026-04-25 18:37 | 42.51558 | 9.62103 | 4989 ft | 226 kts | 9° |
| 2026-04-25 18:38 | 42.53110 | 9.62524 | 4986 ft | 226 kts | 9° |
| 2026-04-25 18:38 | 42.54663 | 9.62936 | 4988 ft | 226 kts | 9° |
| 2026-04-25 18:38 | 42.56195 | 9.63341 | 4987 ft | 226 kts | 9° |
| 2026-04-25 18:38 | 42.57735 | 9.63746 | 4988 ft | 225 kts | 9° |
| 2026-04-25 18:39 | 42.59283 | 9.64152 | 4992 ft | 225 kts | 9° |
| 2026-04-25 18:39 | 42.60824 | 9.64560 | 4994 ft | 226 kts | 9° |
| 2026-04-25 18:39 | 42.62365 | 9.64972 | 4992 ft | 226 kts | 9° |
| 2026-04-25 18:39 | 42.63901 | 9.65385 | 4867 ft | 222 kts | 9° |
| 2026-04-25 18:40 | 42.65418 | 9.65766 | 4523 ft | 224 kts | 3° |
| 2026-04-25 18:40 | 42.66969 | 9.65660 | 4201 ft | 223 kts | 348° |
| 2026-04-25 18:40 | 42.67981 | 9.65375 | 4013 ft | 222 kts | 345° |
| 2026-04-25 18:40 | 42.69975 | 9.64700 | 3634 ft | 221 kts | 344° |
| 2026-04-25 18:41 | 42.71446 | 9.64184 | 3495 ft | 218 kts | 344° |
| 2026-04-25 18:41 | 42.72930 | 9.63651 | 3491 ft | 220 kts | 340° |
| 2026-04-25 18:41 | 42.74206 | 9.62629 | 3474 ft | 211 kts | 310° |
| 2026-04-25 18:41 | 42.75049 | 9.61075 | 3458 ft | 196 kts | 301° |
| 2026-04-25 18:42 | 42.75729 | 9.59514 | 3251 ft | 192 kts | 292° |
| 2026-04-25 18:42 | 42.75885 | 9.58945 | 3151 ft | 191 kts | 279° |
| 2026-04-25 18:42 | 42.75037 | 9.56363 | 2632 ft | 192 kts | 213° |
| 2026-04-25 18:42 | 42.73807 | 9.55640 | 2497 ft | 192 kts | 205° |
| 2026-04-25 18:43 | 42.72745 | 9.54599 | 2469 ft | 187 kts | 239° |
| 2026-04-25 18:43 | 42.72299 | 9.53019 | 2489 ft | 180 kts | 258° |
| 2026-04-25 18:43 | 42.72077 | 9.51335 | 2489 ft | 180 kts | 262° |
| 2026-04-25 18:43 | 42.71887 | 9.49650 | 2478 ft | 177 kts | 256° |
| 2026-04-25 18:44 | 42.71415 | 9.48187 | 2533 ft | 169 kts | 237° |
| 2026-04-25 18:44 | 42.70646 | 9.46971 | 2681 ft | 171 kts | 222° |
| 2026-04-25 18:44 | 42.69591 | 9.46244 | 2671 ft | 167 kts | 197° |
| 2026-04-25 18:44 | 42.68504 | 9.46046 | 2616 ft | 153 kts | 185° |
| 2026-04-25 18:45 | 42.67456 | 9.46030 | 2483 ft | 143 kts | 183° |
| 2026-04-25 18:45 | 42.66478 | 9.46055 | 2250 ft | 138 kts | 183° |
| 2026-04-25 18:45 | 42.65522 | 9.46070 | 1985 ft | 137 kts | 182° |
| 2026-04-25 18:45 | 42.64562 | 9.46128 | 1739 ft | 137 kts | 180° |
| 2026-04-25 18:46 | 42.63616 | 9.46212 | 1536 ft | 137 kts | 178° |
| 2026-04-25 18:46 | 42.62664 | 9.46330 | 1362 ft | 137 kts | 176° |
| 2026-04-25 18:46 | 42.61723 | 9.46460 | 1193 ft | 136 kts | 178° |
| 2026-04-25 18:46 | 42.60777 | 9.46541 | 1007 ft | 135 kts | 176° |
| 2026-04-25 18:47 | 42.59841 | 9.46699 | 826 ft | 135 kts | 171° |
| 2026-04-25 18:47 | 42.58928 | 9.46932 | 625 ft | 134 kts | 168° |
| 2026-04-25 18:47 | 42.58019 | 9.47237 | 401 ft | 133 kts | 164° |
| 2026-04-25 18:47 | 42.57124 | 9.47594 | 213 ft | 133 kts | 163° |
| 2026-04-25 18:48 | 42.56253 | 9.47957 | 43 ft | 132 kts | 162° |
| 2026-04-25 18:48 | 42.55425 | 9.48311 | 21 ft | 103 kts | 163° |
| 2026-04-25 18:48 | 42.54899 | 9.48530 | 25 ft | 60 kts | 163° |
| 2026-04-25 18:48 | 42.54505 | 9.48697 | 26 ft | 55 kts | 162° |
| 2026-04-25 18:49 | 42.54240 | 9.48797 | 26 ft | 18 kts | 181° |
| 2026-04-25 18:49 | 42.54141 | 9.48720 | 28 ft | 16 kts | 243° |
| 2026-04-25 18:49 | 42.54139 | 9.48576 | 29 ft | 15 kts | 295° |
| 2026-04-25 18:49 | 42.54223 | 9.48485 | 29 ft | 15 kts | 343° |
| 2026-04-25 18:50 | 42.54311 | 9.48453 | 29 ft | 10 kts | 345° |
| 2026-04-25 18:50 | 42.54382 | 9.48424 | 30 ft | 8 kts | 343° |
| 2026-04-25 18:50 | 42.54418 | 9.48409 | 30 ft | 4 kts | 345° |
| 2026-04-25 18:50 | 42.54452 | 9.48406 | 30 ft | 5 kts | 7° |
| 2026-04-25 18:51 | 42.54496 | 9.48412 | 30 ft | 6 kts | 0° |
| 2026-04-25 18:51 | 42.54512 | 9.48410 | 30 ft | 7 kts | 353° |
| 2026-04-25 18:51 | 42.54599 | 9.48374 | 31 ft | 8 kts | 343° |
| 2026-04-25 18:51 | 42.54656 | 9.48352 | 32 ft | 8 kts | 345° |
| 2026-04-25 18:52 | 42.54710 | 9.48322 | 31 ft | 7 kts | 309° |
| 2026-04-25 18:52 | 42.54722 | 9.48251 | 32 ft | 6 kts | 281° |
| 2026-04-25 18:52 | 42.54724 | 9.48229 | 32 ft | 0 kts | 282° |
| 2026-04-25 18:52 | 42.54726 | 9.48220 | 33 ft | 1 kts | 282° |
| 2026-04-25 18:53 | 42.54726 | 9.48217 | 33 ft | 0 kts | 282° |
| 2026-04-25 18:56 | 42.54727 | 9.48217 | 33 ft | 0 kts | 282° |
| 2026-04-25 19:03 | 42.54727 | 9.48218 | 33 ft | 0 kts | 282° |